sensor_id;sensor_type;location;lat;lon;timestamp;temperature;humidity
44427;DHT22;30133;47.866;-4.222;2022-09-09T00:02:19;23.90;57.50
44427;DHT22;30133;47.866;-4.222;2022-09-09T00:05:16;23.90;57.50
44427;DHT22;30133;47.866;-4.222;2022-09-09T00:08:03;23.90;57.40
44427;DHT22;30133;47.866;-4.222;2022-09-09T00:10:38;23.80;57.40
44427;DHT22;30133;47.866;-4.222;2022-09-09T00:16:04;23.90;57.40
44427;DHT22;30133;47.866;-4.222;2022-09-09T00:19:55;23.90;57.50
44427;DHT22;30133;47.866;-4.222;2022-09-09T00:24:44;23.80;57.40
44427;DHT22;30133;47.866;-4.222;2022-09-09T00:30:17;23.80;57.40
44427;DHT22;30133;47.866;-4.222;2022-09-09T00:32:49;23.80;57.40
44427;DHT22;30133;47.866;-4.222;2022-09-09T00:35:38;23.80;57.50
44427;DHT22;30133;47.866;-4.222;2022-09-09T00:38:26;23.80;57.50
44427;DHT22;30133;47.866;-4.222;2022-09-09T00:41:22;23.80;57.50
44427;DHT22;30133;47.866;-4.222;2022-09-09T00:44:02;23.80;57.50
44427;DHT22;30133;47.866;-4.222;2022-09-09T00:49:54;23.70;57.60
44427;DHT22;30133;47.866;-4.222;2022-09-09T00:55:48;23.80;57.60
44427;DHT22;30133;47.866;-4.222;2022-09-09T00:58:18;23.70;57.50
44427;DHT22;30133;47.866;-4.222;2022-09-09T01:00:49;23.70;57.50
44427;DHT22;30133;47.866;-4.222;2022-09-09T01:17:17;23.80;57.50
44427;DHT22;30133;47.866;-4.222;2022-09-09T01:27:55;23.70;57.50
44427;DHT22;30133;47.866;-4.222;2022-09-09T01:30:25;23.70;57.50
44427;DHT22;30133;47.866;-4.222;2022-09-09T01:32:55;23.70;57.50
44427;DHT22;30133;47.866;-4.222;2022-09-09T01:35:45;23.70;57.50
44427;DHT22;30133;47.866;-4.222;2022-09-09T01:38:17;23.70;57.50
44427;DHT22;30133;47.866;-4.222;2022-09-09T01:40:44;23.70;57.50
44427;DHT22;30133;47.866;-4.222;2022-09-09T01:43:11;23.70;57.40
44427;DHT22;30133;47.866;-4.222;2022-09-09T01:45:39;23.70;57.50
44427;DHT22;30133;47.866;-4.222;2022-09-09T01:48:06;23.70;57.50
44427;DHT22;30133;47.866;-4.222;2022-09-09T01:56:43;23.70;57.50
44427;DHT22;30133;47.866;-4.222;2022-09-09T01:59:47;23.80;57.50
44427;DHT22;30133;47.866;-4.222;2022-09-09T02:02:19;23.70;57.50
44427;DHT22;30133;47.866;-4.222;2022-09-09T02:05:12;23.70;57.50
44427;DHT22;30133;47.866;-4.222;2022-09-09T02:07:51;23.70;57.50
44427;DHT22;30133;47.866;-4.222;2022-09-09T02:10:50;23.70;57.50
44427;DHT22;30133;47.866;-4.222;2022-09-09T02:13:22;23.70;57.50
44427;DHT22;30133;47.866;-4.222;2022-09-09T02:16:18;23.70;57.50
44427;DHT22;30133;47.866;-4.222;2022-09-09T02:18:53;23.70;57.50
44427;DHT22;30133;47.866;-4.222;2022-09-09T02:21:21;23.70;57.50
44427;DHT22;30133;47.866;-4.222;2022-09-09T02:23:49;23.70;57.50
44427;DHT22;30133;47.866;-4.222;2022-09-09T02:26:17;23.70;57.50
44427;DHT22;30133;47.866;-4.222;2022-09-09T02:28:51;23.70;57.50
44427;DHT22;30133;47.866;-4.222;2022-09-09T02:31:22;23.70;57.50
44427;DHT22;30133;47.866;-4.222;2022-09-09T02:33:59;23.70;57.50
44427;DHT22;30133;47.866;-4.222;2022-09-09T02:36:30;23.70;57.50
44427;DHT22;30133;47.866;-4.222;2022-09-09T02:38:56;23.70;57.50
44427;DHT22;30133;47.866;-4.222;2022-09-09T02:41:45;23.70;57.50
44427;DHT22;30133;47.866;-4.222;2022-09-09T02:44:15;23.70;57.40
44427;DHT22;30133;47.866;-4.222;2022-09-09T02:56:05;23.60;57.50
44427;DHT22;30133;47.866;-4.222;2022-09-09T02:58:35;23.60;57.50
44427;DHT22;30133;47.866;-4.222;2022-09-09T03:01:02;23.60;57.50
44427;DHT22;30133;47.866;-4.222;2022-09-09T03:03:28;23.60;57.50
44427;DHT22;30133;47.866;-4.222;2022-09-09T03:05:54;23.60;57.50
44427;DHT22;30133;47.866;-4.222;2022-09-09T03:08:20;23.60;57.50
44427;DHT22;30133;47.866;-4.222;2022-09-09T03:10:47;23.60;57.50
44427;DHT22;30133;47.866;-4.222;2022-09-09T03:13:13;23.60;57.40
44427;DHT22;30133;47.866;-4.222;2022-09-09T03:15:41;23.60;57.50
44427;DHT22;30133;47.866;-4.222;2022-09-09T03:18:07;23.60;57.40
44427;DHT22;30133;47.866;-4.222;2022-09-09T03:20:33;23.60;57.50
44427;DHT22;30133;47.866;-4.222;2022-09-09T03:23:02;23.60;57.50
44427;DHT22;30133;47.866;-4.222;2022-09-09T03:25:28;23.60;57.50
44427;DHT22;30133;47.866;-4.222;2022-09-09T03:27:55;23.60;57.40
44427;DHT22;30133;47.866;-4.222;2022-09-09T03:30:26;23.60;57.40
44427;DHT22;30133;47.866;-4.222;2022-09-09T03:32:53;23.60;57.40
44427;DHT22;30133;47.866;-4.222;2022-09-09T03:35:21;23.60;57.40
44427;DHT22;30133;47.866;-4.222;2022-09-09T03:37:47;23.60;57.40
44427;DHT22;30133;47.866;-4.222;2022-09-09T03:40:13;23.60;57.40
44427;DHT22;30133;47.866;-4.222;2022-09-09T03:42:39;23.60;57.40
44427;DHT22;30133;47.866;-4.222;2022-09-09T03:45:08;23.60;57.40
44427;DHT22;30133;47.866;-4.222;2022-09-09T03:47:36;23.60;57.40
44427;DHT22;30133;47.866;-4.222;2022-09-09T03:50:03;23.60;57.40
44427;DHT22;30133;47.866;-4.222;2022-09-09T03:52:35;23.60;57.40
44427;DHT22;30133;47.866;-4.222;2022-09-09T03:55:03;23.60;57.40
44427;DHT22;30133;47.866;-4.222;2022-09-09T03:57:29;23.60;57.40
44427;DHT22;30133;47.866;-4.222;2022-09-09T03:59:56;23.60;57.40
44427;DHT22;30133;47.866;-4.222;2022-09-09T04:02:23;23.60;57.40
44427;DHT22;30133;47.866;-4.222;2022-09-09T04:04:49;23.60;57.40
44427;DHT22;30133;47.866;-4.222;2022-09-09T04:07:15;23.60;57.40
44427;DHT22;30133;47.866;-4.222;2022-09-09T04:09:41;23.60;57.40
44427;DHT22;30133;47.866;-4.222;2022-09-09T04:12:07;23.60;57.40
44427;DHT22;30133;47.866;-4.222;2022-09-09T04:14:33;23.60;57.40
44427;DHT22;30133;47.866;-4.222;2022-09-09T04:16:59;23.60;58.00
44427;DHT22;30133;47.866;-4.222;2022-09-09T04:19:25;23.60;57.40
44427;DHT22;30133;47.866;-4.222;2022-09-09T04:21:51;23.60;57.40
44427;DHT22;30133;47.866;-4.222;2022-09-09T04:24:17;23.60;57.40
44427;DHT22;30133;47.866;-4.222;2022-09-09T04:26:44;23.60;57.40
44427;DHT22;30133;47.866;-4.222;2022-09-09T04:29:11;23.60;57.40
44427;DHT22;30133;47.866;-4.222;2022-09-09T04:31:40;23.60;57.40
44427;DHT22;30133;47.866;-4.222;2022-09-09T04:34:09;23.60;57.40
44427;DHT22;30133;47.866;-4.222;2022-09-09T04:36:37;23.60;57.40
44427;DHT22;30133;47.866;-4.222;2022-09-09T04:39:06;23.60;57.40
44427;DHT22;30133;47.866;-4.222;2022-09-09T04:41:32;23.60;57.40
44427;DHT22;30133;47.866;-4.222;2022-09-09T04:43:58;23.60;57.40
44427;DHT22;30133;47.866;-4.222;2022-09-09T04:46:26;23.60;57.40
44427;DHT22;30133;47.866;-4.222;2022-09-09T04:48:52;23.60;57.40
44427;DHT22;30133;47.866;-4.222;2022-09-09T04:51:18;23.50;57.40
44427;DHT22;30133;47.866;-4.222;2022-09-09T04:53:44;23.50;57.40
44427;DHT22;30133;47.866;-4.222;2022-09-09T04:56:14;23.60;57.50
44427;DHT22;30133;47.866;-4.222;2022-09-09T04:58:41;23.50;57.40
44427;DHT22;30133;47.866;-4.222;2022-09-09T05:01:21;23.50;57.50
44427;DHT22;30133;47.866;-4.222;2022-09-09T05:03:48;23.50;57.40
44427;DHT22;30133;47.866;-4.222;2022-09-09T05:06:16;23.50;57.50
44427;DHT22;30133;47.866;-4.222;2022-09-09T05:08:44;23.60;57.50
44427;DHT22;30133;47.866;-4.222;2022-09-09T05:11:25;23.50;57.40
44427;DHT22;30133;47.866;-4.222;2022-09-09T05:13:53;23.50;57.40
44427;DHT22;30133;47.866;-4.222;2022-09-09T05:16:20;23.50;57.40
44427;DHT22;30133;47.866;-4.222;2022-09-09T05:18:47;23.50;57.40
44427;DHT22;30133;47.866;-4.222;2022-09-09T05:21:14;23.50;57.50
44427;DHT22;30133;47.866;-4.222;2022-09-09T05:23:41;23.50;57.50
44427;DHT22;30133;47.866;-4.222;2022-09-09T05:26:13;23.50;57.50
44427;DHT22;30133;47.866;-4.222;2022-09-09T05:28:40;23.50;57.50
44427;DHT22;30133;47.866;-4.222;2022-09-09T05:31:08;23.50;57.50
44427;DHT22;30133;47.866;-4.222;2022-09-09T05:33:39;23.50;57.40
44427;DHT22;30133;47.866;-4.222;2022-09-09T05:36:08;23.50;57.40
44427;DHT22;30133;47.866;-4.222;2022-09-09T05:38:39;23.50;57.40
44427;DHT22;30133;47.866;-4.222;2022-09-09T05:41:07;23.50;57.40
44427;DHT22;30133;47.866;-4.222;2022-09-09T05:43:33;23.50;57.50
44427;DHT22;30133;47.866;-4.222;2022-09-09T05:46:11;23.50;57.50
44427;DHT22;30133;47.866;-4.222;2022-09-09T05:48:41;23.50;57.50
44427;DHT22;30133;47.866;-4.222;2022-09-09T05:51:12;23.50;57.50
44427;DHT22;30133;47.866;-4.222;2022-09-09T05:53:43;23.50;57.40
44427;DHT22;30133;47.866;-4.222;2022-09-09T05:56:15;23.50;57.40
44427;DHT22;30133;47.866;-4.222;2022-09-09T05:58:49;23.50;57.40
44427;DHT22;30133;47.866;-4.222;2022-09-09T06:01:22;23.50;57.50
44427;DHT22;30133;47.866;-4.222;2022-09-09T06:03:50;23.50;57.50
44427;DHT22;30133;47.866;-4.222;2022-09-09T06:06:22;23.40;57.40
44427;DHT22;30133;47.866;-4.222;2022-09-09T06:08:52;23.40;57.40
44427;DHT22;30133;47.866;-4.222;2022-09-09T06:11:29;23.40;57.40
44427;DHT22;30133;47.866;-4.222;2022-09-09T06:14:01;23.40;57.40
44427;DHT22;30133;47.866;-4.222;2022-09-09T06:16:29;23.40;57.40
44427;DHT22;30133;47.866;-4.222;2022-09-09T06:18:56;23.50;57.50
44427;DHT22;30133;47.866;-4.222;2022-09-09T06:21:35;23.50;57.50
44427;DHT22;30133;47.866;-4.222;2022-09-09T06:24:03;23.40;57.40
44427;DHT22;30133;47.866;-4.222;2022-09-09T06:26:33;23.40;57.40
44427;DHT22;30133;47.866;-4.222;2022-09-09T06:29:01;23.40;57.40
44427;DHT22;30133;47.866;-4.222;2022-09-09T06:31:30;23.40;57.40
44427;DHT22;30133;47.866;-4.222;2022-09-09T06:34:00;23.40;57.40
44427;DHT22;30133;47.866;-4.222;2022-09-09T06:36:29;23.40;57.40
44427;DHT22;30133;47.866;-4.222;2022-09-09T06:38:59;23.40;57.40
44427;DHT22;30133;47.866;-4.222;2022-09-09T06:41:28;23.40;57.50
44427;DHT22;30133;47.866;-4.222;2022-09-09T06:43:55;23.40;57.40
44427;DHT22;30133;47.866;-4.222;2022-09-09T06:46:23;23.40;57.40
44427;DHT22;30133;47.866;-4.222;2022-09-09T06:48:54;23.40;57.40
44427;DHT22;30133;47.866;-4.222;2022-09-09T06:51:30;23.40;57.40
44427;DHT22;30133;47.866;-4.222;2022-09-09T06:54:00;23.40;57.40
44427;DHT22;30133;47.866;-4.222;2022-09-09T06:56:38;23.40;57.40
44427;DHT22;30133;47.866;-4.222;2022-09-09T06:59:09;23.50;58.00
44427;DHT22;30133;47.866;-4.222;2022-09-09T07:01:38;23.40;57.40
44427;DHT22;30133;47.866;-4.222;2022-09-09T07:04:17;23.40;57.40
44427;DHT22;30133;47.866;-4.222;2022-09-09T07:06:45;23.40;57.40
44427;DHT22;30133;47.866;-4.222;2022-09-09T07:09:15;23.40;57.40
44427;DHT22;30133;47.866;-4.222;2022-09-09T07:12:14;23.50;57.40
44427;DHT22;30133;47.866;-4.222;2022-09-09T07:14:44;23.40;57.40
44427;DHT22;30133;47.866;-4.222;2022-09-09T07:17:11;23.40;57.40
44427;DHT22;30133;47.866;-4.222;2022-09-09T07:19:43;23.40;57.40
44427;DHT22;30133;47.866;-4.222;2022-09-09T07:22:37;23.50;57.40
44427;DHT22;30133;47.866;-4.222;2022-09-09T07:25:06;23.40;57.40
44427;DHT22;30133;47.866;-4.222;2022-09-09T07:27:41;23.50;57.40
44427;DHT22;30133;47.866;-4.222;2022-09-09T07:30:26;23.40;57.80
44427;DHT22;30133;47.866;-4.222;2022-09-09T07:32:52;23.40;57.40
44427;DHT22;30133;47.866;-4.222;2022-09-09T07:35:19;23.40;57.40
44427;DHT22;30133;47.866;-4.222;2022-09-09T07:37:47;23.50;57.40
44427;DHT22;30133;47.866;-4.222;2022-09-09T07:40:14;23.40;57.40
44427;DHT22;30133;47.866;-4.222;2022-09-09T07:42:40;23.40;57.40
44427;DHT22;30133;47.866;-4.222;2022-09-09T07:45:06;23.40;57.40
44427;DHT22;30133;47.866;-4.222;2022-09-09T07:47:32;23.40;57.30
44427;DHT22;30133;47.866;-4.222;2022-09-09T07:49:58;23.40;57.40
44427;DHT22;30133;47.866;-4.222;2022-09-09T07:52:24;23.40;57.40
44427;DHT22;30133;47.866;-4.222;2022-09-09T07:54:51;23.40;57.40
44427;DHT22;30133;47.866;-4.222;2022-09-09T07:57:17;23.40;57.40
44427;DHT22;30133;47.866;-4.222;2022-09-09T07:59:43;23.40;57.40
44427;DHT22;30133;47.866;-4.222;2022-09-09T08:02:10;23.40;57.40
44427;DHT22;30133;47.866;-4.222;2022-09-09T08:04:36;23.40;57.40
44427;DHT22;30133;47.866;-4.222;2022-09-09T08:07:02;23.40;57.30
44427;DHT22;30133;47.866;-4.222;2022-09-09T08:09:29;23.40;57.30
44427;DHT22;30133;47.866;-4.222;2022-09-09T08:11:56;23.40;57.40
44427;DHT22;30133;47.866;-4.222;2022-09-09T08:14:22;23.40;57.30
44427;DHT22;30133;47.866;-4.222;2022-09-09T08:16:49;23.40;57.30
44427;DHT22;30133;47.866;-4.222;2022-09-09T08:19:16;23.40;57.40
44427;DHT22;30133;47.866;-4.222;2022-09-09T08:21:43;23.40;57.40
44427;DHT22;30133;47.866;-4.222;2022-09-09T08:24:10;23.50;57.30
44427;DHT22;30133;47.866;-4.222;2022-09-09T08:26:42;23.50;57.30
44427;DHT22;30133;47.866;-4.222;2022-09-09T08:29:11;23.50;57.30
44427;DHT22;30133;47.866;-4.222;2022-09-09T08:31:44;23.60;57.50
44427;DHT22;30133;47.866;-4.222;2022-09-09T08:34:12;23.60;57.30
44427;DHT22;30133;47.866;-4.222;2022-09-09T08:36:40;23.60;57.80
44427;DHT22;30133;47.866;-4.222;2022-09-09T08:39:09;23.60;57.50
44427;DHT22;30133;47.866;-4.222;2022-09-09T08:44:28;23.70;57.30
44427;DHT22;30133;47.866;-4.222;2022-09-09T08:47:23;23.70;57.40
44427;DHT22;30133;47.866;-4.222;2022-09-09T08:55:48;23.70;57.50
44427;DHT22;30133;47.866;-4.222;2022-09-09T08:58:24;23.60;57.60
44427;DHT22;30133;47.866;-4.222;2022-09-09T09:12:00;23.80;57.50
44427;DHT22;30133;47.866;-4.222;2022-09-09T09:14:33;23.80;57.40
44427;DHT22;30133;47.866;-4.222;2022-09-09T09:17:11;23.80;57.40
44427;DHT22;30133;47.866;-4.222;2022-09-09T09:19:40;23.80;57.40
44427;DHT22;30133;47.866;-4.222;2022-09-09T09:25:31;23.90;57.50
44427;DHT22;30133;47.866;-4.222;2022-09-09T09:28:07;24.00;57.40
44427;DHT22;30133;47.866;-4.222;2022-09-09T09:31:04;24.00;57.30
44427;DHT22;30133;47.866;-4.222;2022-09-09T09:36:16;24.10;57.20
44427;DHT22;30133;47.866;-4.222;2022-09-09T09:41:30;24.20;57.30
44427;DHT22;30133;47.866;-4.222;2022-09-09T09:44:01;24.20;57.20
44427;DHT22;30133;47.866;-4.222;2022-09-09T09:46:28;24.30;57.10
44427;DHT22;30133;47.866;-4.222;2022-09-09T09:49:02;24.30;57.20
44427;DHT22;30133;47.866;-4.222;2022-09-09T09:51:32;24.40;57.10
44427;DHT22;30133;47.866;-4.222;2022-09-09T09:56:39;24.50;56.80
44427;DHT22;30133;47.866;-4.222;2022-09-09T09:59:18;24.60;56.80
44427;DHT22;30133;47.866;-4.222;2022-09-09T10:01:49;24.60;56.90
44427;DHT22;30133;47.866;-4.222;2022-09-09T10:04:19;24.60;57.00
44427;DHT22;30133;47.866;-4.222;2022-09-09T10:06:50;24.70;56.70
44427;DHT22;30133;47.866;-4.222;2022-09-09T10:09:26;24.70;56.60
44427;DHT22;30133;47.866;-4.222;2022-09-09T10:14:38;24.70;56.60
44427;DHT22;30133;47.866;-4.222;2022-09-09T10:17:35;24.70;56.50
44427;DHT22;30133;47.866;-4.222;2022-09-09T10:20:19;24.70;56.50
44427;DHT22;30133;47.866;-4.222;2022-09-09T10:23:25;24.70;56.40
44427;DHT22;30133;47.866;-4.222;2022-09-09T10:32:38;24.80;56.30
44427;DHT22;30133;47.866;-4.222;2022-09-09T10:39:21;24.80;56.30
44427;DHT22;30133;47.866;-4.222;2022-09-09T10:42:13;24.80;56.30
44427;DHT22;30133;47.866;-4.222;2022-09-09T10:49:15;24.80;56.20
44427;DHT22;30133;47.866;-4.222;2022-09-09T10:52:01;24.80;56.10
44427;DHT22;30133;47.866;-4.222;2022-09-09T10:57:54;24.80;56.10
44427;DHT22;30133;47.866;-4.222;2022-09-09T11:01:16;24.80;56.10
44427;DHT22;30133;47.866;-4.222;2022-09-09T11:04:55;24.80;56.00
44427;DHT22;30133;47.866;-4.222;2022-09-09T11:08:12;24.80;56.00
44427;DHT22;30133;47.866;-4.222;2022-09-09T11:11:25;24.80;56.10
44427;DHT22;30133;47.866;-4.222;2022-09-09T11:15:20;24.80;56.00
44427;DHT22;30133;47.866;-4.222;2022-09-09T11:17:58;24.80;56.10
44427;DHT22;30133;47.866;-4.222;2022-09-09T11:20:55;24.80;56.00
44427;DHT22;30133;47.866;-4.222;2022-09-09T11:24:03;24.80;56.00
44427;DHT22;30133;47.866;-4.222;2022-09-09T11:27:39;24.80;56.00
44427;DHT22;30133;47.866;-4.222;2022-09-09T11:37:27;24.80;56.00
44427;DHT22;30133;47.866;-4.222;2022-09-09T11:40:36;24.80;56.00
44427;DHT22;30133;47.866;-4.222;2022-09-09T11:43:32;24.80;55.90
44427;DHT22;30133;47.866;-4.222;2022-09-09T11:46:41;24.80;56.00
44427;DHT22;30133;47.866;-4.222;2022-09-09T11:49:27;24.80;55.90
44427;DHT22;30133;47.866;-4.222;2022-09-09T11:51:58;24.80;55.90
44427;DHT22;30133;47.866;-4.222;2022-09-09T11:54:32;24.80;55.90
44427;DHT22;30133;47.866;-4.222;2022-09-09T11:57:34;24.80;55.80
44427;DHT22;30133;47.866;-4.222;2022-09-09T12:03:45;24.80;55.80
44427;DHT22;30133;47.866;-4.222;2022-09-09T12:06:31;24.80;56.00
44427;DHT22;30133;47.866;-4.222;2022-09-09T12:20:14;24.80;55.80
44427;DHT22;30133;47.866;-4.222;2022-09-09T12:22:55;24.80;55.80
44427;DHT22;30133;47.866;-4.222;2022-09-09T12:34:42;24.80;55.70
44427;DHT22;30133;47.866;-4.222;2022-09-09T12:38:00;24.80;55.80
44427;DHT22;30133;47.866;-4.222;2022-09-09T12:40:33;24.80;55.70
44427;DHT22;30133;47.866;-4.222;2022-09-09T12:43:18;24.80;55.70
44427;DHT22;30133;47.866;-4.222;2022-09-09T12:46:11;24.80;55.70
44427;DHT22;30133;47.866;-4.222;2022-09-09T12:48:56;24.80;55.70
44427;DHT22;30133;47.866;-4.222;2022-09-09T12:51:31;24.80;55.70
44427;DHT22;30133;47.866;-4.222;2022-09-09T12:53:59;24.80;55.70
44427;DHT22;30133;47.866;-4.222;2022-09-09T12:56:30;24.80;55.70
44427;DHT22;30133;47.866;-4.222;2022-09-09T12:59:00;24.80;55.70
44427;DHT22;30133;47.866;-4.222;2022-09-09T13:01:38;24.80;55.70
44427;DHT22;30133;47.866;-4.222;2022-09-09T13:04:20;24.80;55.70
44427;DHT22;30133;47.866;-4.222;2022-09-09T13:06:47;24.80;55.60
44427;DHT22;30133;47.866;-4.222;2022-09-09T13:09:15;24.80;55.60
44427;DHT22;30133;47.866;-4.222;2022-09-09T13:11:44;24.80;55.60
44427;DHT22;30133;47.866;-4.222;2022-09-09T13:14:28;24.80;55.60
44427;DHT22;30133;47.866;-4.222;2022-09-09T13:17:06;24.80;55.60
44427;DHT22;30133;47.866;-4.222;2022-09-09T13:19:36;24.80;55.70
44427;DHT22;30133;47.866;-4.222;2022-09-09T13:25:06;24.80;56.30
44427;DHT22;30133;47.866;-4.222;2022-09-09T13:27:35;24.80;55.70
44427;DHT22;30133;47.866;-4.222;2022-09-09T13:33:04;24.90;55.70
44427;DHT22;30133;47.866;-4.222;2022-09-09T13:35:33;24.90;55.80
44427;DHT22;30133;47.866;-4.222;2022-09-09T13:38:07;24.90;55.90
44427;DHT22;30133;47.866;-4.222;2022-09-09T13:40:35;24.90;56.00
44427;DHT22;30133;47.866;-4.222;2022-09-09T13:43:02;25.00;56.20
44427;DHT22;30133;47.866;-4.222;2022-09-09T13:45:29;25.00;56.30
44427;DHT22;30133;47.866;-4.222;2022-09-09T13:47:56;25.00;56.30
44427;DHT22;30133;47.866;-4.222;2022-09-09T13:50:27;25.00;56.20
44427;DHT22;30133;47.866;-4.222;2022-09-09T13:52:58;25.00;55.80
44427;DHT22;30133;47.866;-4.222;2022-09-09T13:55:28;25.00;55.80
44427;DHT22;30133;47.866;-4.222;2022-09-09T13:58:04;25.00;56.00
44427;DHT22;30133;47.866;-4.222;2022-09-09T14:00:37;25.10;56.10
44427;DHT22;30133;47.866;-4.222;2022-09-09T14:03:08;25.10;56.40
44427;DHT22;30133;47.866;-4.222;2022-09-09T14:05:36;25.10;55.80
44427;DHT22;30133;47.866;-4.222;2022-09-09T14:08:04;25.10;55.70
44427;DHT22;30133;47.866;-4.222;2022-09-09T14:10:33;25.10;55.80
44427;DHT22;30133;47.866;-4.222;2022-09-09T14:13:05;25.10;56.00
44427;DHT22;30133;47.866;-4.222;2022-09-09T14:15:35;25.10;56.00
44427;DHT22;30133;47.866;-4.222;2022-09-09T14:18:03;25.10;55.80
44427;DHT22;30133;47.866;-4.222;2022-09-09T14:20:31;25.20;55.60
44427;DHT22;30133;47.866;-4.222;2022-09-09T14:22:59;25.20;55.50
44427;DHT22;30133;47.866;-4.222;2022-09-09T14:25:30;25.20;55.40
44427;DHT22;30133;47.866;-4.222;2022-09-09T14:28:03;25.20;55.40
44427;DHT22;30133;47.866;-4.222;2022-09-09T14:30:30;25.20;55.50
44427;DHT22;30133;47.866;-4.222;2022-09-09T14:33:02;25.20;55.50
44427;DHT22;30133;47.866;-4.222;2022-09-09T14:35:30;25.20;55.40
44427;DHT22;30133;47.866;-4.222;2022-09-09T14:37:57;25.20;55.50
44427;DHT22;30133;47.866;-4.222;2022-09-09T14:40:24;25.20;55.50
44427;DHT22;30133;47.866;-4.222;2022-09-09T14:42:53;25.20;55.60
44427;DHT22;30133;47.866;-4.222;2022-09-09T14:45:20;25.30;55.50
44427;DHT22;30133;47.866;-4.222;2022-09-09T14:47:47;25.30;55.00
44427;DHT22;30133;47.866;-4.222;2022-09-09T14:50:16;25.40;55.10
44427;DHT22;30133;47.866;-4.222;2022-09-09T14:52:43;25.40;55.20
44427;DHT22;30133;47.866;-4.222;2022-09-09T14:55:11;25.40;55.30
44427;DHT22;30133;47.866;-4.222;2022-09-09T14:57:37;25.40;55.30
44427;DHT22;30133;47.866;-4.222;2022-09-09T15:00:09;25.40;55.30
44427;DHT22;30133;47.866;-4.222;2022-09-09T15:02:36;25.40;55.20
44427;DHT22;30133;47.866;-4.222;2022-09-09T15:05:04;25.40;55.10
44427;DHT22;30133;47.866;-4.222;2022-09-09T15:07:31;25.40;55.10
44427;DHT22;30133;47.866;-4.222;2022-09-09T15:09:57;25.40;55.70
44427;DHT22;30133;47.866;-4.222;2022-09-09T15:12:24;25.40;55.10
44427;DHT22;30133;47.866;-4.222;2022-09-09T15:14:50;25.40;55.00
44427;DHT22;30133;47.866;-4.222;2022-09-09T15:17:19;25.40;55.00
44427;DHT22;30133;47.866;-4.222;2022-09-09T15:19:46;25.40;55.20
44427;DHT22;30133;47.866;-4.222;2022-09-09T15:22:14;25.40;55.10
44427;DHT22;30133;47.866;-4.222;2022-09-09T15:24:41;25.50;55.20
44427;DHT22;30133;47.866;-4.222;2022-09-09T15:27:08;25.50;55.30
44427;DHT22;30133;47.866;-4.222;2022-09-09T15:29:36;25.40;55.30
44427;DHT22;30133;47.866;-4.222;2022-09-09T15:32:04;25.50;55.30
44427;DHT22;30133;47.866;-4.222;2022-09-09T15:34:32;25.50;55.20
44427;DHT22;30133;47.866;-4.222;2022-09-09T15:36:58;25.60;55.10
44427;DHT22;30133;47.866;-4.222;2022-09-09T15:39:26;25.60;55.10
44427;DHT22;30133;47.866;-4.222;2022-09-09T15:41:53;25.60;55.00
44427;DHT22;30133;47.866;-4.222;2022-09-09T15:44:19;25.60;55.00
44427;DHT22;30133;47.866;-4.222;2022-09-09T15:46:49;25.60;55.00
44427;DHT22;30133;47.866;-4.222;2022-09-09T15:49:23;25.60;55.10
44427;DHT22;30133;47.866;-4.222;2022-09-09T15:52:00;25.60;55.30
44427;DHT22;30133;47.866;-4.222;2022-09-09T15:54:35;25.60;55.30
44427;DHT22;30133;47.866;-4.222;2022-09-09T15:57:07;25.60;55.30
44427;DHT22;30133;47.866;-4.222;2022-09-09T15:59:38;25.60;55.60
44427;DHT22;30133;47.866;-4.222;2022-09-09T16:02:06;25.60;55.50
44427;DHT22;30133;47.866;-4.222;2022-09-09T16:04:35;25.60;55.40
44427;DHT22;30133;47.866;-4.222;2022-09-09T16:07:05;25.70;55.40
44427;DHT22;30133;47.866;-4.222;2022-09-09T16:09:34;25.70;55.40
44427;DHT22;30133;47.866;-4.222;2022-09-09T16:12:04;25.70;55.30
44427;DHT22;30133;47.866;-4.222;2022-09-09T16:14:35;25.70;55.30
44427;DHT22;30133;47.866;-4.222;2022-09-09T16:17:05;25.70;55.20
44427;DHT22;30133;47.866;-4.222;2022-09-09T16:19:33;25.70;55.20
44427;DHT22;30133;47.866;-4.222;2022-09-09T16:22:01;25.70;55.20
44427;DHT22;30133;47.866;-4.222;2022-09-09T16:24:29;25.80;55.30
44427;DHT22;30133;47.866;-4.222;2022-09-09T16:26:57;25.80;55.20
44427;DHT22;30133;47.866;-4.222;2022-09-09T16:29:24;25.80;55.20
44427;DHT22;30133;47.866;-4.222;2022-09-09T16:31:53;25.70;55.10
44427;DHT22;30133;47.866;-4.222;2022-09-09T16:34:24;25.70;55.20
44427;DHT22;30133;47.866;-4.222;2022-09-09T16:36:51;25.70;55.10
44427;DHT22;30133;47.866;-4.222;2022-09-09T16:39:21;25.70;55.10
44427;DHT22;30133;47.866;-4.222;2022-09-09T16:41:48;25.70;55.20
44427;DHT22;30133;47.866;-4.222;2022-09-09T16:44:17;25.70;55.20
44427;DHT22;30133;47.866;-4.222;2022-09-09T16:46:46;25.70;55.10
44427;DHT22;30133;47.866;-4.222;2022-09-09T16:49:21;25.70;55.20
44427;DHT22;30133;47.866;-4.222;2022-09-09T16:51:49;25.60;55.10
44427;DHT22;30133;47.866;-4.222;2022-09-09T16:54:21;25.60;55.40
44427;DHT22;30133;47.866;-4.222;2022-09-09T16:56:49;25.60;55.10
44427;DHT22;30133;47.866;-4.222;2022-09-09T16:59:17;25.60;55.10
44427;DHT22;30133;47.866;-4.222;2022-09-09T17:01:47;25.60;55.10
44427;DHT22;30133;47.866;-4.222;2022-09-09T17:04:17;25.60;55.20
44427;DHT22;30133;47.866;-4.222;2022-09-09T17:06:51;25.60;55.20
44427;DHT22;30133;47.866;-4.222;2022-09-09T17:09:20;25.60;55.30
44427;DHT22;30133;47.866;-4.222;2022-09-09T17:11:48;25.60;55.20
44427;DHT22;30133;47.866;-4.222;2022-09-09T17:14:20;25.50;55.20
44427;DHT22;30133;47.866;-4.222;2022-09-09T17:16:47;25.60;55.30
44427;DHT22;30133;47.866;-4.222;2022-09-09T17:19:14;25.50;55.20
44427;DHT22;30133;47.866;-4.222;2022-09-09T17:21:41;25.50;55.20
44427;DHT22;30133;47.866;-4.222;2022-09-09T17:24:10;25.50;55.20
44427;DHT22;30133;47.866;-4.222;2022-09-09T17:26:37;25.50;55.20
44427;DHT22;30133;47.866;-4.222;2022-09-09T17:29:03;25.50;55.20
44427;DHT22;30133;47.866;-4.222;2022-09-09T17:31:30;25.50;55.20
44427;DHT22;30133;47.866;-4.222;2022-09-09T17:33:58;25.50;55.30
44427;DHT22;30133;47.866;-4.222;2022-09-09T17:36:33;25.40;55.20
44427;DHT22;30133;47.866;-4.222;2022-09-09T17:39:04;25.50;55.30
44427;DHT22;30133;47.866;-4.222;2022-09-09T17:41:35;25.50;55.30
44427;DHT22;30133;47.866;-4.222;2022-09-09T17:44:04;25.50;55.30
44427;DHT22;30133;47.866;-4.222;2022-09-09T17:46:36;25.40;55.20
44427;DHT22;30133;47.866;-4.222;2022-09-09T17:49:14;25.40;55.20
44427;DHT22;30133;47.866;-4.222;2022-09-09T17:51:43;25.40;55.20
44427;DHT22;30133;47.866;-4.222;2022-09-09T17:54:18;25.40;55.20
44427;DHT22;30133;47.866;-4.222;2022-09-09T17:56:46;25.40;55.20
44427;DHT22;30133;47.866;-4.222;2022-09-09T17:59:14;25.40;55.20
44427;DHT22;30133;47.866;-4.222;2022-09-09T18:01:43;25.40;55.30
44427;DHT22;30133;47.866;-4.222;2022-09-09T18:04:13;25.30;55.20
44427;DHT22;30133;47.866;-4.222;2022-09-09T18:06:42;25.40;55.30
44427;DHT22;30133;47.866;-4.222;2022-09-09T18:09:16;25.30;55.30
44427;DHT22;30133;47.866;-4.222;2022-09-09T18:11:47;25.30;55.30
44427;DHT22;30133;47.866;-4.222;2022-09-09T18:14:18;25.30;55.30